createdAt,value
2023-03-03T00:01:22.074Z,4.30
2023-03-03T00:03:50.307Z,4.30
2023-03-03T00:06:18.543Z,4.20
2023-03-03T00:08:46.912Z,4.10
2023-03-03T00:11:15.277Z,4.10
2023-03-03T00:13:47.620Z,4.10
2023-03-03T00:16:22.158Z,4.10
2023-03-03T00:18:51.141Z,4.10
2023-03-03T00:21:29.308Z,4.10
2023-03-03T00:24:19.166Z,4.10
2023-03-03T00:26:49.056Z,4.10
2023-03-03T00:29:35.879Z,4.10
2023-03-03T00:32:27.252Z,4.10
2023-03-03T00:34:56.734Z,4.10
2023-03-03T00:37:31.507Z,4.10
2023-03-03T00:40:22.684Z,4.10
2023-03-03T00:42:53.139Z,4.10
2023-03-03T00:45:28.766Z,4.00
2023-03-03T00:47:59.409Z,4.00
2023-03-03T00:50:36.861Z,3.90
2023-03-03T00:53:07.935Z,3.90
2023-03-03T00:55:37.141Z,3.90
2023-03-03T00:58:06.131Z,3.80
2023-03-03T01:00:34.651Z,3.70
2023-03-03T01:03:06.813Z,3.60
2023-03-03T01:05:35.585Z,3.60
2023-03-03T01:08:04.317Z,3.60
2023-03-03T01:10:34.784Z,3.60
2023-03-03T01:13:03.088Z,3.60
2023-03-03T01:15:31.439Z,3.70
2023-03-03T01:17:59.697Z,3.70
2023-03-03T01:20:29.487Z,3.70
2023-03-03T01:22:57.711Z,3.70
2023-03-03T01:25:25.903Z,3.70
2023-03-03T01:27:54.134Z,3.70
2023-03-03T01:30:22.549Z,3.60
2023-03-03T01:32:50.836Z,3.70
2023-03-03T01:35:19.581Z,3.70
2023-03-03T01:37:49.224Z,3.70
2023-03-03T01:40:20.799Z,3.70
2023-03-03T01:42:49.394Z,3.70
2023-03-03T01:45:22.241Z,3.70
2023-03-03T01:47:55.021Z,3.70
2023-03-03T01:50:33.943Z,3.70
2023-03-03T01:53:07.623Z,3.70
2023-03-03T01:55:38.551Z,3.70
2023-03-03T01:58:10.535Z,3.70
2023-03-03T02:00:41.915Z,3.70
2023-03-03T02:03:10.983Z,3.70
2023-03-03T02:05:41.264Z,3.70
2023-03-03T02:08:14.636Z,3.80
2023-03-03T02:10:46.091Z,3.70
2023-03-03T02:13:14.659Z,3.80
2023-03-03T02:15:42.904Z,3.80
2023-03-03T02:18:13.458Z,3.80
2023-03-03T02:20:54.118Z,3.80
2023-03-03T02:23:28.426Z,3.80
2023-03-03T02:26:10.960Z,3.90
2023-03-03T02:28:40.265Z,3.90
2023-03-03T02:31:13.361Z,3.90
2023-03-03T02:33:42.768Z,3.90
2023-03-03T02:36:14.000Z,3.90
2023-03-03T02:38:47.624Z,4.00
2023-03-03T02:41:28.310Z,4.00
2023-03-03T02:44:00.478Z,4.00
2023-03-03T02:46:28.738Z,4.00
2023-03-03T02:48:56.904Z,4.00
2023-03-03T02:51:25.342Z,4.00
2023-03-03T02:53:53.682Z,4.00
2023-03-03T02:56:23.603Z,4.00
2023-03-03T02:58:52.255Z,4.00
2023-03-03T03:01:20.859Z,4.00
2023-03-03T03:03:49.470Z,3.90
2023-03-03T03:06:17.733Z,3.90
2023-03-03T03:08:46.011Z,3.90
2023-03-03T03:11:14.235Z,3.90
2023-03-03T03:13:43.864Z,3.90
2023-03-03T03:16:12.159Z,3.90
2023-03-03T03:18:41.733Z,3.90
2023-03-03T03:21:11.803Z,3.90
2023-03-03T03:23:40.473Z,3.90
2023-03-03T03:26:09.089Z,3.80
2023-03-03T03:28:37.987Z,3.70
2023-03-03T03:31:08.814Z,3.60
2023-03-03T03:33:37.658Z,3.60
2023-03-03T03:36:07.155Z,3.50
2023-03-03T03:38:36.775Z,3.60
2023-03-03T03:41:06.256Z,3.50
2023-03-03T03:43:34.883Z,3.50
2023-03-03T03:46:03.364Z,3.50
2023-03-03T03:48:33.068Z,3.50
2023-03-03T03:51:01.365Z,3.50
2023-03-03T03:53:29.616Z,3.50
2023-03-03T03:55:58.062Z,3.50
2023-03-03T03:58:26.317Z,3.40
2023-03-03T04:00:54.577Z,3.30
2023-03-03T04:03:23.006Z,3.40
2023-03-03T04:05:54.105Z,3.30
2023-03-03T04:08:22.426Z,3.30
2023-03-03T04:10:50.701Z,3.40
2023-03-03T04:13:18.925Z,3.40
2023-03-03T04:15:47.200Z,3.50
2023-03-03T04:18:15.607Z,3.40
2023-03-03T04:20:43.985Z,3.40
2023-03-03T04:23:14.888Z,3.40
2023-03-03T04:25:43.135Z,3.40
2023-03-03T04:28:11.383Z,3.40
2023-03-03T04:30:39.707Z,3.50
2023-03-03T04:33:08.314Z,3.50
2023-03-03T04:35:36.569Z,3.50
2023-03-03T04:38:05.101Z,3.50
2023-03-03T04:40:34.756Z,3.50
2023-03-03T04:43:02.991Z,3.60
2023-03-03T04:45:31.289Z,3.60
2023-03-03T04:47:59.548Z,3.60
2023-03-03T04:50:28.562Z,3.60
2023-03-03T04:52:56.799Z,3.60
2023-03-03T04:55:25.185Z,3.60
2023-03-03T04:57:54.912Z,3.60
2023-03-03T05:00:23.327Z,3.60
2023-03-03T05:02:51.593Z,3.60
2023-03-03T05:05:19.983Z,3.60
2023-03-03T05:07:48.223Z,3.60
2023-03-03T05:10:16.609Z,3.60
2023-03-03T05:12:45.359Z,3.60
2023-03-03T05:15:15.096Z,3.60
2023-03-03T05:17:43.418Z,3.60
2023-03-03T05:20:13.491Z,3.60
2023-03-03T05:22:41.825Z,3.60
2023-03-03T05:25:12.704Z,3.60
2023-03-03T05:27:40.948Z,3.70
2023-03-03T05:30:10.599Z,3.70
2023-03-03T05:32:40.426Z,3.60
2023-03-03T05:35:09.229Z,3.70
2023-03-03T05:37:37.437Z,3.70
2023-03-03T05:40:06.780Z,3.70
2023-03-03T05:42:35.066Z,3.80
2023-03-03T05:45:03.340Z,3.80
2023-03-03T05:47:31.564Z,3.70
2023-03-03T05:50:01.505Z,3.70
2023-03-03T05:52:30.031Z,3.70
2023-03-03T05:54:58.414Z,3.70
2023-03-03T05:57:26.761Z,3.70
2023-03-03T05:59:55.024Z,3.70
2023-03-03T06:02:23.478Z,3.70
2023-03-03T06:04:51.674Z,3.70
2023-03-03T06:07:21.271Z,3.80
2023-03-03T06:09:49.559Z,3.70
2023-03-03T06:12:17.884Z,3.70
2023-03-03T06:14:46.126Z,3.70
2023-03-03T06:17:14.356Z,3.70
2023-03-03T06:19:42.682Z,3.70
2023-03-03T06:22:11.240Z,3.70
2023-03-03T06:24:40.996Z,3.70
2023-03-03T06:27:10.333Z,3.80
2023-03-03T06:29:38.579Z,3.80
2023-03-03T06:32:07.372Z,3.80
2023-03-03T06:34:35.782Z,3.90
2023-03-03T06:37:04.145Z,4.00
2023-03-03T06:39:32.418Z,3.90
2023-03-03T06:42:02.115Z,4.00
2023-03-03T06:44:30.366Z,4.00
2023-03-03T06:46:59.027Z,4.00
2023-03-03T06:49:27.312Z,3.90
2023-03-03T06:51:55.852Z,4.00
2023-03-03T06:54:31.075Z,4.00
2023-03-03T06:57:06.895Z,4.10
2023-03-03T06:59:35.133Z,4.10
2023-03-03T07:02:12.245Z,4.20
2023-03-03T07:04:40.521Z,4.20
2023-03-03T07:07:17.973Z,4.30
2023-03-03T07:09:48.062Z,4.30
2023-03-03T07:12:22.268Z,4.40
2023-03-03T07:14:55.968Z,4.50
2023-03-03T07:17:26.359Z,4.50
2023-03-03T07:19:55.493Z,4.50
2023-03-03T07:22:26.859Z,4.50
2023-03-03T07:24:57.345Z,4.60
2023-03-03T07:27:28.361Z,4.80
2023-03-03T07:30:02.828Z,4.80
2023-03-03T07:32:40.380Z,4.90
2023-03-03T07:35:44.741Z,5.00
2023-03-03T07:38:24.459Z,5.10
2023-03-03T07:40:54.745Z,5.20
2023-03-03T07:43:34.907Z,5.10
2023-03-03T07:46:29.389Z,5.00
2023-03-03T07:48:58.839Z,5.00
2023-03-03T07:51:29.363Z,5.00
2023-03-03T07:54:14.834Z,5.00
2023-03-03T07:56:43.108Z,4.90
2023-03-03T07:59:22.258Z,4.90
2023-03-03T08:01:55.339Z,5.10
2023-03-03T08:04:26.447Z,5.20
2023-03-03T08:06:56.577Z,5.30
2023-03-03T08:09:44.059Z,5.50
2023-03-03T08:12:30.969Z,5.60
2023-03-03T08:15:15.962Z,5.70
2023-03-03T08:17:45.573Z,5.70
2023-03-03T08:20:44.573Z,5.60
2023-03-03T08:23:13.450Z,5.70
2023-03-03T08:25:42.926Z,5.70
2023-03-03T08:28:11.859Z,5.80
2023-03-03T08:30:41.582Z,6.00
2023-03-03T08:33:09.918Z,6.00
2023-03-03T08:35:38.374Z,6.10
2023-03-03T08:38:07.552Z,6.10
2023-03-03T08:40:36.276Z,6.20
2023-03-03T08:43:05.602Z,6.10
2023-03-03T08:45:34.900Z,6.30
2023-03-03T08:48:06.231Z,6.40
2023-03-03T08:50:34.597Z,6.70
2023-03-03T08:53:02.872Z,6.80
2023-03-03T08:55:31.159Z,6.90
2023-03-03T08:57:59.550Z,7.00
2023-03-03T09:00:27.826Z,7.00
2023-03-03T09:02:56.813Z,7.10
2023-03-03T09:05:26.845Z,7.20
2023-03-03T09:07:56.412Z,7.20
2023-03-03T09:10:29.557Z,7.20
2023-03-03T09:13:01.256Z,7.20
2023-03-03T09:15:30.694Z,7.10
2023-03-03T09:18:01.308Z,6.90
2023-03-03T09:20:35.391Z,6.90
2023-03-03T09:23:31.445Z,7.00
2023-03-03T09:26:12.538Z,6.90
2023-03-03T09:28:40.844Z,6.80
2023-03-03T09:31:25.510Z,6.80
2023-03-03T09:33:57.679Z,6.80
2023-03-03T09:36:29.310Z,6.70
2023-03-03T09:38:58.515Z,6.70
2023-03-03T09:41:47.915Z,6.80
2023-03-03T09:44:38.056Z,6.80
2023-03-03T09:47:27.256Z,6.80
2023-03-03T09:50:06.716Z,6.90
2023-03-03T09:52:52.510Z,7.10
2023-03-03T09:55:37.010Z,7.30
2023-03-03T09:58:31.890Z,7.40
2023-03-03T10:01:11.288Z,7.60
2023-03-03T10:03:56.522Z,7.60
2023-03-03T10:06:29.244Z,7.60
2023-03-03T10:09:18.120Z,7.60
2023-03-03T10:11:50.817Z,7.50
2023-03-03T10:14:40.818Z,7.60
2023-03-03T10:17:24.096Z,7.40
2023-03-03T10:20:05.639Z,7.40
2023-03-03T10:22:45.471Z,7.40
2023-03-03T10:25:26.607Z,7.30
2023-03-03T10:28:30.450Z,7.40
2023-03-03T10:31:13.622Z,7.30
2023-03-03T10:33:51.068Z,7.30
2023-03-03T10:36:40.923Z,7.50
2023-03-03T10:39:26.659Z,7.70
2023-03-03T10:42:21.157Z,7.80
2023-03-03T10:45:23.322Z,7.60
2023-03-03T10:47:55.638Z,7.70
2023-03-03T10:50:28.699Z,7.60
2023-03-03T10:53:11.042Z,7.90
2023-03-03T10:55:50.230Z,8.10
2023-03-03T10:58:52.960Z,8.20
2023-03-03T11:01:30.973Z,8.40
2023-03-03T11:04:26.498Z,8.50
2023-03-03T11:07:02.511Z,8.70
2023-03-03T11:09:43.321Z,9.00
2023-03-03T11:12:24.747Z,9.10
2023-03-03T11:15:07.462Z,9.20
2023-03-03T11:17:51.683Z,9.50
2023-03-03T11:20:32.764Z,9.70
2023-03-03T11:23:12.999Z,10.30
2023-03-03T11:25:50.674Z,10.50
2023-03-03T11:28:35.356Z,10.80
2023-03-03T11:31:19.797Z,10.90
2023-03-03T11:33:58.088Z,11.20
2023-03-03T11:36:34.626Z,11.60
2023-03-03T11:39:05.913Z,12.00
2023-03-03T11:41:37.749Z,12.50
2023-03-03T11:44:22.204Z,13.00
2023-03-03T11:46:55.114Z,13.40
2023-03-03T11:49:29.892Z,13.40
2023-03-03T11:52:06.643Z,13.40
2023-03-03T11:54:44.231Z,13.20
2023-03-03T11:57:20.467Z,13.70
2023-03-03T12:00:33.416Z,14.10
2023-03-03T12:03:17.852Z,14.70
2023-03-03T12:05:58.702Z,15.50
2023-03-03T12:08:44.306Z,15.70
2023-03-03T12:11:23.952Z,16.10
2023-03-03T12:13:59.193Z,16.50
2023-03-03T12:16:42.173Z,16.70
2023-03-03T12:19:45.104Z,16.60
2023-03-03T12:22:29.759Z,16.20
2023-03-03T12:25:19.744Z,15.90
2023-03-03T12:27:55.965Z,15.60
2023-03-03T12:30:38.627Z,15.20
2023-03-03T12:33:19.393Z,14.60
2023-03-03T12:35:57.985Z,14.30
2023-03-03T12:38:37.249Z,14.00
2023-03-03T12:41:09.958Z,13.60
2023-03-03T12:43:51.583Z,13.50
2023-03-03T12:46:29.313Z,13.60
2023-03-03T12:48:57.848Z,13.70
2023-03-03T12:51:39.037Z,13.90
2023-03-03T12:54:19.249Z,14.30
2023-03-03T12:56:53.062Z,15.00
2023-03-03T12:59:26.764Z,15.90
2023-03-03T13:02:06.880Z,16.60
2023-03-03T13:04:39.259Z,17.20
2023-03-03T13:07:17.127Z,17.60
2023-03-03T13:10:01.370Z,18.10
2023-03-03T13:12:39.481Z,18.30
2023-03-03T13:15:17.229Z,17.90
2023-03-03T13:17:56.912Z,17.40
2023-03-03T13:20:39.634Z,17.40
2023-03-03T13:23:14.666Z,16.90
2023-03-03T13:25:51.720Z,16.80
2023-03-03T13:28:29.952Z,16.70
2023-03-03T13:31:04.208Z,16.60
2023-03-03T13:33:36.658Z,16.70
2023-03-03T13:36:10.170Z,16.60
2023-03-03T13:38:43.761Z,16.60
2023-03-03T13:41:18.658Z,16.40
2023-03-03T13:43:50.772Z,16.30
2023-03-03T13:46:28.278Z,15.80
2023-03-03T13:49:15.678Z,15.50
2023-03-03T13:51:50.928Z,14.90
2023-03-03T13:54:41.103Z,14.60
2023-03-03T13:57:22.845Z,14.10
2023-03-03T14:00:05.537Z,13.60
2023-03-03T14:02:51.100Z,13.40
2023-03-03T14:05:27.189Z,13.00
2023-03-03T14:08:00.428Z,12.90
2023-03-03T14:10:33.367Z,12.50
2023-03-03T14:13:06.516Z,12.40
2023-03-03T14:15:37.881Z,12.60
2023-03-03T14:18:25.245Z,12.90
2023-03-03T14:20:55.051Z,13.20
2023-03-03T14:23:29.032Z,13.30
2023-03-03T14:26:09.701Z,13.30
2023-03-03T14:28:44.112Z,13.70
2023-03-03T14:31:19.647Z,14.20
2023-03-03T14:33:59.256Z,14.60
2023-03-03T14:36:30.842Z,14.90
2023-03-03T14:38:58.853Z,14.80
2023-03-03T14:41:42.301Z,14.90
2023-03-03T14:44:26.967Z,14.90
2023-03-03T14:47:23.153Z,14.80
2023-03-03T14:49:52.078Z,14.70
2023-03-03T14:52:25.451Z,14.70
2023-03-03T14:54:55.717Z,14.50
2023-03-03T14:57:46.326Z,14.10
2023-03-03T15:00:31.324Z,14.00
2023-03-03T15:03:06.755Z,13.90
2023-03-03T15:05:35.860Z,13.50
2023-03-03T15:08:12.388Z,13.70
2023-03-03T15:10:42.031Z,13.70
2023-03-03T15:13:34.908Z,13.70
2023-03-03T15:16:10.221Z,13.70
2023-03-03T15:19:14.254Z,13.80
2023-03-03T15:21:49.494Z,13.90
2023-03-03T15:24:25.886Z,14.00
2023-03-03T15:27:02.357Z,14.20
2023-03-03T15:29:38.378Z,14.10
2023-03-03T15:32:14.918Z,14.00
2023-03-03T15:34:48.921Z,14.00
2023-03-03T15:37:29.658Z,13.90
2023-03-03T15:40:05.105Z,13.70
2023-03-03T15:42:39.342Z,13.60
2023-03-03T15:45:18.363Z,13.30
2023-03-03T15:48:04.076Z,13.10
2023-03-03T15:50:42.367Z,13.00
2023-03-03T15:53:24.696Z,12.90
2023-03-03T15:56:08.965Z,12.70
2023-03-03T15:59:18.675Z,12.60
2023-03-03T16:01:54.206Z,12.40
2023-03-03T16:04:27.279Z,12.20
2023-03-03T16:07:01.836Z,12.20
2023-03-03T16:09:44.541Z,12.20
2023-03-03T16:12:19.770Z,12.20
2023-03-03T16:15:14.353Z,12.10
2023-03-03T16:17:51.034Z,11.90
2023-03-03T16:20:24.502Z,11.90
2023-03-03T16:23:06.294Z,11.70
2023-03-03T16:25:49.273Z,11.40
2023-03-03T16:28:24.000Z,11.20
2023-03-03T16:30:59.528Z,11.00
2023-03-03T16:33:37.388Z,10.70
2023-03-03T16:36:13.115Z,10.50
2023-03-03T16:38:45.040Z,10.20
2023-03-03T16:41:16.852Z,10.00
2023-03-03T16:43:52.816Z,9.90
2023-03-03T16:46:31.284Z,9.70
2023-03-03T16:49:06.294Z,9.50
2023-03-03T16:51:43.619Z,9.20
2023-03-03T16:54:19.470Z,9.10
2023-03-03T16:56:53.616Z,8.90
2023-03-03T16:59:51.908Z,8.70
2023-03-03T17:03:04.473Z,8.60
2023-03-03T17:05:43.677Z,8.40
2023-03-03T17:08:32.476Z,8.20
2023-03-03T17:11:09.300Z,8.00
2023-03-03T17:14:04.692Z,8.00
2023-03-03T17:16:52.464Z,7.80
2023-03-03T17:19:33.558Z,7.70
2023-03-03T17:22:18.149Z,7.50
2023-03-03T17:25:01.523Z,7.40
2023-03-03T17:27:38.983Z,7.40
2023-03-03T17:30:15.652Z,7.30
2023-03-03T17:33:00.246Z,7.30
2023-03-03T17:35:47.875Z,7.20
2023-03-03T17:38:25.774Z,7.10
2023-03-03T17:41:04.332Z,7.10
2023-03-03T17:43:41.529Z,7.00
2023-03-03T17:46:17.096Z,7.00
2023-03-03T17:49:25.584Z,6.90
2023-03-03T17:52:09.146Z,6.80
2023-03-03T17:55:04.662Z,6.80
2023-03-03T17:57:45.710Z,6.70
2023-03-03T18:00:31.512Z,6.70
2023-03-03T18:03:29.742Z,6.60
2023-03-03T18:06:25.636Z,6.50
2023-03-03T18:09:15.156Z,6.60
2023-03-03T18:12:00.242Z,6.40
2023-03-03T18:14:53.410Z,6.30
2023-03-03T18:17:37.607Z,6.30
2023-03-03T18:20:37.642Z,6.20
2023-03-03T18:23:31.032Z,6.20
2023-03-03T18:26:01.086Z,6.10
2023-03-03T18:28:47.290Z,6.00
2023-03-03T18:31:25.162Z,5.90
2023-03-03T18:34:04.654Z,5.90
2023-03-03T18:36:55.189Z,5.80
2023-03-03T18:39:41.035Z,5.70
2023-03-03T18:42:43.500Z,5.60
2023-03-03T18:45:49.869Z,5.50
2023-03-03T18:48:20.116Z,5.50
2023-03-03T18:50:49.835Z,5.30
2023-03-03T18:53:22.621Z,5.20
2023-03-03T18:55:52.598Z,5.10
2023-03-03T18:58:33.995Z,5.10
2023-03-03T19:01:15.268Z,4.90
2023-03-03T19:04:17.837Z,4.90
2023-03-03T19:07:24.834Z,4.80
2023-03-03T19:09:58.295Z,4.70
2023-03-03T19:12:52.152Z,4.60
2023-03-03T19:15:57.231Z,4.50
2023-03-03T19:18:28.220Z,4.40
2023-03-03T19:20:59.718Z,4.30
2023-03-03T19:23:50.056Z,4.20
2023-03-03T19:26:38.365Z,4.20
2023-03-03T19:29:20.362Z,4.10
2023-03-03T19:31:53.966Z,4.10
2023-03-03T19:34:29.963Z,4.00
2023-03-03T19:37:12.708Z,4.00
2023-03-03T19:39:51.538Z,3.90
2023-03-03T19:42:36.039Z,3.90
2023-03-03T19:45:18.814Z,3.80
2023-03-03T19:47:52.703Z,3.80
2023-03-03T19:50:34.517Z,3.80
2023-03-03T19:53:05.965Z,3.60
2023-03-03T19:55:44.583Z,3.60
2023-03-03T19:58:23.693Z,3.60
2023-03-03T20:00:58.487Z,3.50
2023-03-03T20:03:49.031Z,3.50
2023-03-03T20:06:37.835Z,3.50
2023-03-03T20:09:17.466Z,3.40
2023-03-03T20:11:59.263Z,3.40
2023-03-03T20:14:45.000Z,3.40
2023-03-03T20:17:43.174Z,3.30
2023-03-03T20:20:41.818Z,3.30
2023-03-03T20:23:23.177Z,3.30
2023-03-03T20:25:57.114Z,3.20
2023-03-03T20:28:53.512Z,3.20
2023-03-03T20:31:29.006Z,3.20
2023-03-03T20:34:08.058Z,3.10
2023-03-03T20:36:44.029Z,3.20
2023-03-03T20:39:21.781Z,3.10
2023-03-03T20:42:06.085Z,3.10
2023-03-03T20:44:54.105Z,3.20
2023-03-03T20:47:35.211Z,3.10
2023-03-03T20:50:16.883Z,3.10
2023-03-03T20:52:57.277Z,3.10
2023-03-03T20:55:35.230Z,3.20
2023-03-03T20:58:08.685Z,3.20
2023-03-03T21:00:43.437Z,3.20
2023-03-03T21:03:17.801Z,3.20
2023-03-03T21:05:58.770Z,3.20
2023-03-03T21:08:45.763Z,3.20
2023-03-03T21:11:17.698Z,3.20
2023-03-03T21:13:47.655Z,3.20
2023-03-03T21:16:31.643Z,3.10
2023-03-03T21:19:01.268Z,3.10
2023-03-03T21:21:31.011Z,3.10
2023-03-03T21:23:59.717Z,3.10
2023-03-03T21:26:49.974Z,3.10
2023-03-03T21:29:20.981Z,3.00
2023-03-03T21:31:50.663Z,3.00
2023-03-03T21:34:20.746Z,3.00
2023-03-03T21:36:50.469Z,3.00
2023-03-03T21:39:25.092Z,3.00
2023-03-03T21:41:57.214Z,3.00
2023-03-03T21:44:40.300Z,3.00
2023-03-03T21:47:10.466Z,3.10
2023-03-03T21:49:42.449Z,3.10
2023-03-03T21:52:11.134Z,3.10
2023-03-03T21:54:39.368Z,3.10
2023-03-03T21:57:09.389Z,3.10
2023-03-03T21:59:37.851Z,3.10
2023-03-03T22:02:07.200Z,3.10
2023-03-03T22:04:38.407Z,3.10
2023-03-03T22:07:07.027Z,3.20
2023-03-03T22:09:35.560Z,3.20
2023-03-03T22:12:04.128Z,3.20
2023-03-03T22:14:33.990Z,3.20
2023-03-03T22:17:02.309Z,3.30
2023-03-03T22:19:30.693Z,3.40
2023-03-03T22:21:59.026Z,3.40
2023-03-03T22:24:27.431Z,3.40
2023-03-03T22:26:55.735Z,3.40
2023-03-03T22:29:24.211Z,3.40
2023-03-03T22:31:53.817Z,3.40
2023-03-03T22:34:22.357Z,3.40
2023-03-03T22:36:50.553Z,3.40
2023-03-03T22:39:18.826Z,3.40
2023-03-03T22:41:47.049Z,3.30
2023-03-03T22:44:15.251Z,3.30
2023-03-03T22:46:43.472Z,3.20
2023-03-03T22:49:13.040Z,3.20
2023-03-03T22:51:41.308Z,3.10
2023-03-03T22:54:09.530Z,3.00
2023-03-03T22:56:37.747Z,3.00
2023-03-03T22:59:06.192Z,3.00
2023-03-03T23:01:34.427Z,2.90
2023-03-03T23:04:02.716Z,2.80
2023-03-03T23:06:32.328Z,2.80
2023-03-03T23:09:00.566Z,2.80
2023-03-03T23:11:29.279Z,2.80
2023-03-03T23:13:57.484Z,2.80
2023-03-03T23:16:25.785Z,2.70
2023-03-03T23:18:54.046Z,2.70
2023-03-03T23:21:22.237Z,2.60
2023-03-03T23:23:52.023Z,2.60
2023-03-03T23:26:20.229Z,2.50
2023-03-03T23:28:48.473Z,2.50
2023-03-03T23:31:16.704Z,2.50
2023-03-03T23:33:44.947Z,2.40
2023-03-03T23:36:13.261Z,2.40
2023-03-03T23:38:43.165Z,2.40
2023-03-03T23:41:13.002Z,2.30
2023-03-03T23:43:41.171Z,2.30
2023-03-03T23:46:09.683Z,2.30
2023-03-03T23:48:37.891Z,2.30
2023-03-03T23:51:06.596Z,2.30
2023-03-03T23:53:34.861Z,2.30
2023-03-03T23:56:03.103Z,2.30
2023-03-03T23:58:32.751Z,2.30
